KHAF Airport Information

Runway Information
Runway 12 Length 5000 ft width 150 ft
Elevation 59 ft Threshold 763 ft Heading 137
Runway 30 Length 5000 ft Width 150 ft
Elevation 36 ft Threshold 763 ft Heading 317
Airport Frequencies
Type A/D Name NORCAL APP Frequency 135.1 MHZ
Type UNIC Name CTAF/UNICO Frequency 122.8 MHZ
Airport Navaids
Airport Weather Information & NOTAM
ADDS - METARS form results

(0308 UTC 20 January 2019)
Data provider http://aviationweather.gov/metar/data/
 
METAR text: KHAF 200300Z AUTO 06003KT 3SM BR OVC002 14/12 A3023 RMK AO2
Conditions at: KHAF (HALF MOON BAY , CA, US) observed 0300 UTC 20 January 2019
Temperature: 14.0°C (57°F)
Dewpoint: 12.0°C (54°F) [RH = 88%]
Pressure (altimeter): 30.23 inches Hg (1023.8 mb)
Winds: from the ENE (60 degrees) at 3 MPH (3 knots; 1.5 m/s)
Visibility: 3 miles ( 5 km)
Ceiling: 200 feet AGL
Clouds: overcast cloud deck at 200 feet AGL
Weather: BR  (mist)

METAR text: KHAF 200255Z AUTO 00000KT 2SM BR OVC002 14/12 A3023 RMK AO2
Conditions at: KHAF (HALF MOON BAY , CA, US) observed 0255 UTC 20 January 2019
Temperature: 14.0°C (57°F)
Dewpoint: 12.0°C (54°F) [RH = 88%]
Pressure (altimeter): 30.23 inches Hg (1023.8 mb)
Winds: calm
Visibility: 2.00 miles (3.22 km)
Ceiling: 200 feet AGL
Clouds: overcast cloud deck at 200 feet AGL
Weather: BR  (mist)

METAR text: KHAF 200235Z AUTO 15003KT 3SM HZ OVC002 14/12 A3023 RMK AO2
Conditions at: KHAF (HALF MOON BAY , CA, US) observed 0235 UTC 20 January 2019
Temperature: 14.0°C (57°F)
Dewpoint: 12.0°C (54°F) [RH = 88%]
Pressure (altimeter): 30.23 inches Hg (1023.8 mb)
Winds: from the SSE (150 degrees) at 3 MPH (3 knots; 1.5 m/s)
Visibility: 3 miles ( 5 km)
Ceiling: 200 feet AGL
Clouds: overcast cloud deck at 200 feet AGL
Weather: HZ  (haze)

METAR text: KHAF 200220Z AUTO 00000KT 3SM BR BKN003 OVC060 14/12 A3023 RMK AO2
Conditions at: KHAF (HALF MOON BAY , CA, US) observed 0220 UTC 20 January 2019
Temperature: 14.0°C (57°F)
Dewpoint: 12.0°C (54°F) [RH = 88%]
Pressure (altimeter): 30.23 inches Hg (1023.8 mb)
Winds: calm
Visibility: 3 miles ( 5 km)
Ceiling: 300 feet AGL
Clouds: broken clouds at 300 feet AGL
overcast cloud deck at 6000 feet AGL
Weather: BR  (mist)

METAR text: KHAF 200215Z AUTO 00000KT 3SM HZ BKN002 OVC060 14/12 A3023 RMK AO2
Conditions at: KHAF (HALF MOON BAY , CA, US) observed 0215 UTC 20 January 2019
Temperature: 14.0°C (57°F)
Dewpoint: 12.0°C (54°F) [RH = 88%]
Pressure (altimeter): 30.23 inches Hg (1023.8 mb)
Winds: calm
Visibility: 3 miles ( 5 km)
Ceiling: 200 feet AGL
Clouds: broken clouds at 200 feet AGL
overcast cloud deck at 6000 feet AGL
Weather: HZ  (haze)